createdAt,value
2018-09-13T00:00:17.349Z,823.04
2018-09-13T00:01:17.371Z,823.02
2018-09-13T00:02:17.388Z,823.03
2018-09-13T00:03:17.412Z,823.01
2018-09-13T00:04:17.434Z,822.98
2018-09-13T00:05:17.452Z,822.99
2018-09-13T00:06:17.471Z,822.95
2018-09-13T00:07:17.493Z,822.96
2018-09-13T00:08:17.513Z,822.96
2018-09-13T00:09:17.535Z,822.95
2018-09-13T00:10:17.555Z,822.95
2018-09-13T00:11:17.573Z,822.95
2018-09-13T00:12:17.597Z,822.95
2018-09-13T00:13:17.615Z,822.92
2018-09-13T00:14:17.635Z,822.93
2018-09-13T00:15:17.657Z,822.88
2018-09-13T00:16:17.679Z,822.86
2018-09-13T00:17:17.702Z,822.85
2018-09-13T00:18:17.718Z,822.83
2018-09-13T00:19:17.744Z,822.81
2018-09-13T00:20:17.766Z,822.79
2018-09-13T00:21:17.780Z,822.80
2018-09-13T00:22:17.801Z,822.75
2018-09-13T00:23:17.820Z,822.78
2018-09-13T00:24:17.841Z,822.76
2018-09-13T00:25:17.865Z,822.75
2018-09-13T00:26:17.886Z,822.76
2018-09-13T00:27:17.904Z,822.73
2018-09-13T00:28:17.926Z,822.77
2018-09-13T00:29:17.945Z,822.70
2018-09-13T00:30:17.966Z,822.74
2018-09-13T00:31:17.986Z,822.70
2018-09-13T00:32:18.006Z,822.66
2018-09-13T00:33:18.027Z,822.65
2018-09-13T00:34:18.046Z,822.65
2018-09-13T00:35:18.068Z,822.66
2018-09-13T00:36:18.089Z,822.61
2018-09-13T00:37:18.109Z,822.60
2018-09-13T00:38:18.129Z,822.63
2018-09-13T00:39:18.150Z,822.62
2018-09-13T00:40:18.170Z,822.61
2018-09-13T00:41:18.191Z,822.59
2018-09-13T00:42:18.209Z,822.58
2018-09-13T00:43:18.230Z,822.55
2018-09-13T00:44:18.250Z,822.56
2018-09-13T00:45:18.275Z,822.58
2018-09-13T00:46:18.292Z,822.56
2018-09-13T00:47:18.314Z,822.56
2018-09-13T00:48:18.332Z,822.57
2018-09-13T00:49:18.352Z,822.55
2018-09-13T00:50:18.373Z,822.58
2018-09-13T00:51:18.396Z,822.56
2018-09-13T00:52:18.413Z,822.53
2018-09-13T00:53:18.433Z,822.56
2018-09-13T00:54:18.460Z,822.56
2018-09-13T00:55:18.480Z,822.55
2018-09-13T00:56:18.495Z,822.51
2018-09-13T00:57:18.515Z,822.52
2018-09-13T00:58:18.535Z,822.51
2018-09-13T00:59:18.556Z,822.49
2018-09-13T01:00:18.576Z,822.53
2018-09-13T01:01:18.594Z,822.51
2018-09-13T01:02:18.618Z,822.53
2018-09-13T01:03:18.635Z,822.49
2018-09-13T01:04:18.657Z,822.48
2018-09-13T01:05:18.678Z,822.56
2018-09-13T01:06:18.697Z,822.51
2018-09-13T01:07:18.726Z,822.52
2018-09-13T01:08:18.739Z,822.49
2018-09-13T01:09:18.756Z,822.50
2018-09-13T01:10:18.779Z,822.47
2018-09-13T01:11:18.798Z,822.45
2018-09-13T01:12:18.819Z,822.50
2018-09-13T01:13:18.838Z,822.51
2018-09-13T01:14:18.858Z,822.45
2018-09-13T01:15:18.876Z,822.48
2018-09-13T01:16:18.903Z,822.44
2018-09-13T01:17:18.916Z,822.46
2018-09-13T01:18:18.935Z,822.44
2018-09-13T01:19:18.957Z,822.44
2018-09-13T01:20:18.977Z,822.40
2018-09-13T01:21:18.997Z,822.42
2018-09-13T01:22:19.016Z,822.44
2018-09-13T01:23:19.037Z,822.38
2018-09-13T01:24:19.059Z,822.40
2018-09-13T01:25:19.080Z,822.36
2018-09-13T01:26:19.097Z,822.37
2018-09-13T01:27:19.117Z,822.36
2018-09-13T01:28:19.140Z,822.37
2018-09-13T01:29:19.159Z,822.41
2018-09-13T01:30:19.180Z,822.42
2018-09-13T01:31:19.198Z,822.42
2018-09-13T01:32:19.218Z,822.40
2018-09-13T01:33:19.237Z,822.45
2018-09-13T01:34:19.259Z,822.41
2018-09-13T01:35:19.278Z,822.41
2018-09-13T01:36:19.300Z,822.41
2018-09-13T01:37:19.321Z,822.42
2018-09-13T01:38:19.338Z,822.42
2018-09-13T01:39:19.362Z,822.45
2018-09-13T01:40:19.379Z,822.44
2018-09-13T01:41:19.399Z,822.44
2018-09-13T01:42:19.420Z,822.43
2018-09-13T01:43:19.441Z,822.41
2018-09-13T01:44:19.460Z,822.39
2018-09-13T01:45:19.479Z,822.38
2018-09-13T01:46:19.498Z,822.35
2018-09-13T01:47:19.521Z,822.38
2018-09-13T01:48:19.539Z,822.33
2018-09-13T01:49:19.559Z,822.34
2018-09-13T01:50:19.580Z,822.34
2018-09-13T01:51:19.599Z,822.34
2018-09-13T01:52:19.617Z,822.33
2018-09-13T01:53:19.638Z,822.31
2018-09-13T01:54:19.660Z,822.32
2018-09-13T01:55:19.679Z,822.29
2018-09-13T01:56:19.699Z,822.26
2018-09-13T01:57:19.720Z,822.29
2018-09-13T01:58:19.736Z,822.28
2018-09-13T01:59:19.757Z,822.27
2018-09-13T02:00:19.780Z,822.29
2018-09-13T02:01:19.799Z,822.31
2018-09-13T02:02:19.817Z,822.23
2018-09-13T02:03:19.840Z,822.27
2018-09-13T02:04:19.854Z,822.24
2018-09-13T02:05:19.876Z,822.24
2018-09-13T02:06:19.892Z,822.22
2018-09-13T02:07:19.916Z,822.22
2018-09-13T02:08:19.934Z,822.21
2018-09-13T02:09:19.955Z,822.21
2018-09-13T02:10:19.973Z,822.23
2018-09-13T02:11:19.994Z,822.20
2018-09-13T02:12:20.015Z,822.17
2018-09-13T02:13:20.032Z,822.19
2018-09-13T02:14:20.055Z,822.19
2018-09-13T02:15:20.074Z,822.16
2018-09-13T02:16:20.093Z,822.20
2018-09-13T02:17:20.114Z,822.16
2018-09-13T02:18:20.131Z,822.17
2018-09-13T02:19:20.152Z,822.14
2018-09-13T02:20:20.174Z,822.10
2018-09-13T02:21:20.191Z,822.13
2018-09-13T02:22:20.211Z,822.10
2018-09-13T02:23:20.231Z,822.10
2018-09-13T02:24:20.251Z,822.10
2018-09-13T02:25:20.271Z,822.10
2018-09-13T02:26:20.289Z,822.11
2018-09-13T02:27:20.309Z,822.08
2018-09-13T02:28:20.329Z,822.07
2018-09-13T02:29:20.349Z,822.05
2018-09-13T02:30:20.369Z,822.07
2018-09-13T02:31:20.387Z,822.08
2018-09-13T02:32:20.408Z,822.07
2018-09-13T02:33:20.431Z,822.09
2018-09-13T02:34:20.448Z,822.07
2018-09-13T02:35:20.467Z,822.05
2018-09-13T02:36:20.487Z,822.14
2018-09-13T02:37:20.507Z,822.11
2018-09-13T02:38:20.527Z,822.11
2018-09-13T02:39:20.548Z,822.12
2018-09-13T02:40:20.564Z,822.12
2018-09-13T02:41:20.584Z,822.06
2018-09-13T02:42:20.605Z,822.07
2018-09-13T02:43:20.625Z,822.06
2018-09-13T02:44:20.644Z,822.01
2018-09-13T02:45:20.666Z,822.02
2018-09-13T02:46:20.685Z,821.97
2018-09-13T02:47:20.703Z,821.97
2018-09-13T02:48:20.721Z,821.97
2018-09-13T02:49:20.821Z,821.96
2018-09-13T02:50:20.768Z,821.92
2018-09-13T02:51:20.781Z,821.92
2018-09-13T02:52:20.802Z,821.92
2018-09-13T02:53:20.821Z,821.88
2018-09-13T02:54:20.840Z,821.91
2018-09-13T02:55:20.859Z,821.91
2018-09-13T02:56:20.879Z,821.92
2018-09-13T02:57:20.899Z,821.93
2018-09-13T02:58:20.920Z,821.92
2018-09-13T02:59:20.938Z,821.89
2018-09-13T03:00:20.957Z,821.90
2018-09-13T03:01:20.987Z,821.90
2018-09-13T03:02:20.995Z,821.86
2018-09-13T03:03:21.019Z,821.81
2018-09-13T03:04:21.036Z,821.83
2018-09-13T03:05:21.055Z,821.84
2018-09-13T03:06:21.075Z,821.83
2018-09-13T03:07:21.094Z,821.81
2018-09-13T03:08:21.135Z,821.81
2018-09-13T03:09:21.138Z,821.80
2018-09-13T03:10:21.151Z,821.80
2018-09-13T03:11:21.172Z,821.75
2018-09-13T03:12:21.194Z,821.72
2018-09-13T03:13:21.215Z,821.72
2018-09-13T03:14:21.231Z,821.71
2018-09-13T03:15:21.254Z,821.70
2018-09-13T03:16:21.268Z,821.68
2018-09-13T03:17:21.291Z,821.66
2018-09-13T03:18:21.308Z,821.66
2018-09-13T03:19:21.326Z,821.73
2018-09-13T03:20:21.346Z,821.70
2018-09-13T03:21:21.367Z,821.73
2018-09-13T03:22:21.387Z,821.74
2018-09-13T03:23:21.406Z,821.72
2018-09-13T03:24:21.424Z,821.73
2018-09-13T03:25:21.445Z,821.72
2018-09-13T03:26:21.462Z,821.72
2018-09-13T03:27:21.482Z,821.71
2018-09-13T03:28:21.501Z,821.71
2018-09-13T03:29:21.519Z,821.70
2018-09-13T03:30:21.542Z,821.73
2018-09-13T03:31:21.558Z,821.68
2018-09-13T03:32:21.578Z,821.67
2018-09-13T03:33:21.598Z,821.68
2018-09-13T03:34:21.617Z,821.66
2018-09-13T03:35:21.636Z,821.66
2018-09-13T03:36:21.656Z,821.65
2018-09-13T03:37:21.681Z,821.65
2018-09-13T03:38:21.694Z,821.66
2018-09-13T03:39:21.718Z,821.66
2018-09-13T03:40:21.734Z,821.62
2018-09-13T03:41:21.751Z,821.64
2018-09-13T03:42:21.772Z,821.63
2018-09-13T03:43:21.796Z,821.61
2018-09-13T03:44:21.811Z,821.61
2018-09-13T03:45:21.827Z,821.58
2018-09-13T03:46:21.852Z,821.59
2018-09-13T03:47:21.866Z,821.56
2018-09-13T03:48:21.883Z,821.60
2018-09-13T03:49:21.904Z,821.58
2018-09-13T03:50:21.922Z,821.60
2018-09-13T03:51:21.940Z,821.57
2018-09-13T03:52:21.962Z,821.54
2018-09-13T03:53:21.980Z,821.57
2018-09-13T03:54:21.999Z,821.55
2018-09-13T03:55:22.020Z,821.53
2018-09-13T03:56:22.039Z,821.51
2018-09-13T03:57:22.058Z,821.52
2018-09-13T03:58:22.077Z,821.50
2018-09-13T03:59:22.093Z,821.50
2018-09-13T04:00:22.117Z,821.53
2018-09-13T04:01:22.133Z,821.54
2018-09-13T04:02:22.152Z,821.50
2018-09-13T04:03:22.261Z,821.51
2018-09-13T04:04:22.197Z,821.50
2018-09-13T04:05:22.209Z,821.51
2018-09-13T04:06:22.228Z,821.52
2018-09-13T04:07:22.245Z,821.49
2018-09-13T04:08:22.267Z,821.50
2018-09-13T04:09:22.373Z,821.51
2018-09-13T04:10:22.304Z,821.51
2018-09-13T04:11:22.321Z,821.48
2018-09-13T04:12:22.342Z,821.52
2018-09-13T04:13:22.360Z,821.50
2018-09-13T04:14:22.383Z,821.50
2018-09-13T04:15:22.398Z,821.47
2018-09-13T04:16:22.425Z,821.46
2018-09-13T04:17:22.435Z,821.46
2018-09-13T04:18:22.469Z,821.46
2018-09-13T04:19:22.472Z,821.48
2018-09-13T04:20:22.494Z,821.47
2018-09-13T04:21:22.510Z,821.47
2018-09-13T04:22:22.527Z,821.46
2018-09-13T04:23:22.550Z,821.47
2018-09-13T04:24:22.564Z,821.47
2018-09-13T04:25:22.584Z,821.46
2018-09-13T04:26:22.604Z,821.45
2018-09-13T04:27:22.620Z,821.41
2018-09-13T04:28:22.640Z,821.42
2018-09-13T04:29:22.657Z,821.37
2018-09-13T04:30:22.679Z,821.35
2018-09-13T04:31:22.698Z,821.37
2018-09-13T04:32:22.715Z,821.36
2018-09-13T04:33:22.737Z,821.36
2018-09-13T04:34:22.752Z,821.34
2018-09-13T04:35:22.771Z,821.34
2018-09-13T04:36:22.789Z,821.32
2018-09-13T04:37:22.814Z,821.32
2018-09-13T04:38:22.827Z,821.33
2018-09-13T04:39:22.848Z,821.32
2018-09-13T04:40:22.863Z,821.32
2018-09-13T04:41:22.884Z,821.32
2018-09-13T04:42:22.898Z,821.32
2018-09-13T04:43:22.918Z,821.30
2018-09-13T04:44:22.937Z,821.32
2018-09-13T04:45:22.957Z,821.32
2018-09-13T04:46:22.976Z,821.30
2018-09-13T04:47:22.992Z,821.31
2018-09-13T04:48:23.013Z,821.29
2018-09-13T04:49:23.033Z,821.28
2018-09-13T04:50:23.048Z,821.29
2018-09-13T04:51:23.067Z,821.33
2018-09-13T04:52:23.086Z,821.31
2018-09-13T04:53:23.106Z,821.29
2018-09-13T04:54:23.122Z,821.31
2018-09-13T04:55:23.142Z,821.25
2018-09-13T04:56:23.161Z,821.26
2018-09-13T04:57:23.180Z,821.28
2018-09-13T04:58:23.207Z,821.30
2018-09-13T04:59:23.215Z,821.28
2018-09-13T05:00:23.344Z,821.30
2018-09-13T05:01:23.255Z,821.30
2018-09-13T05:02:23.273Z,821.32
2018-09-13T05:03:23.293Z,821.28
2018-09-13T05:04:23.323Z,821.27
2018-09-13T05:05:23.327Z,821.29
2018-09-13T05:06:23.361Z,821.28
2018-09-13T05:07:23.364Z,821.26
2018-09-13T05:08:23.385Z,821.27
2018-09-13T05:09:23.400Z,821.28
2018-09-13T05:10:23.420Z,821.26
2018-09-13T05:11:23.443Z,821.23
2018-09-13T05:12:23.457Z,821.24
2018-09-13T05:13:23.473Z,821.29
2018-09-13T05:14:23.491Z,821.24
2018-09-13T05:15:23.509Z,821.21
2018-09-13T05:16:23.528Z,821.19
2018-09-13T05:17:23.547Z,821.20
2018-09-13T05:18:23.564Z,821.17
2018-09-13T05:19:23.582Z,821.17
2018-09-13T05:20:23.600Z,821.14
2018-09-13T05:21:23.618Z,821.14
2018-09-13T05:22:23.635Z,821.15
2018-09-13T05:23:23.657Z,821.15
2018-09-13T05:24:23.692Z,821.13
2018-09-13T05:25:23.694Z,821.13
2018-09-13T05:26:23.708Z,821.15
2018-09-13T05:27:23.727Z,821.11
2018-09-13T05:28:23.743Z,821.11
2018-09-13T05:29:23.766Z,821.09
2018-09-13T05:30:23.778Z,821.07
2018-09-13T05:31:23.801Z,821.07
2018-09-13T05:32:23.818Z,821.01
2018-09-13T05:33:23.834Z,821.04
2018-09-13T05:34:23.854Z,821.03
2018-09-13T05:35:23.871Z,821.03
2018-09-13T05:36:23.889Z,821.01
2018-09-13T05:37:23.908Z,821.04
2018-09-13T05:38:23.923Z,820.99
2018-09-13T05:39:23.942Z,821.04
2018-09-13T05:40:23.960Z,821.05
2018-09-13T05:41:23.986Z,821.03
2018-09-13T05:42:23.997Z,821.06
2018-09-13T05:43:24.023Z,821.05
2018-09-13T05:44:24.043Z,821.09
2018-09-13T05:45:24.090Z,821.04
2018-09-13T05:46:24.070Z,821.06
2018-09-13T05:47:24.088Z,821.06
2018-09-13T05:48:24.105Z,821.06
2018-09-13T05:49:24.125Z,821.07
2018-09-13T05:50:24.141Z,821.08
2018-09-13T05:51:24.161Z,821.07
2018-09-13T05:52:24.183Z,821.05
2018-09-13T05:53:24.196Z,821.09
2018-09-13T05:54:24.213Z,821.07
2018-09-13T05:55:24.231Z,821.12
2018-09-13T05:56:24.258Z,821.11
2018-09-13T05:57:24.270Z,821.11
2018-09-13T05:58:24.316Z,821.15
2018-09-13T05:59:24.304Z,821.16
2018-09-13T06:00:24.323Z,821.17
2018-09-13T06:01:24.426Z,821.18
2018-09-13T06:02:24.357Z,821.18
2018-09-13T06:03:24.375Z,821.19
2018-09-13T06:04:24.395Z,821.19
2018-09-13T06:05:24.412Z,821.20
2018-09-13T06:06:24.430Z,821.20
2018-09-13T06:07:24.449Z,821.19
2018-09-13T06:08:24.467Z,821.20
2018-09-13T06:09:24.492Z,821.17
2018-09-13T06:10:24.508Z,821.18
2018-09-13T06:11:24.521Z,821.19
2018-09-13T06:12:24.542Z,821.17
2018-09-13T06:13:24.581Z,821.20
2018-09-13T06:14:24.575Z,821.16
2018-09-13T06:15:24.595Z,821.18
2018-09-13T06:16:24.616Z,821.19
2018-09-13T06:17:24.632Z,821.18
2018-09-13T06:18:24.648Z,821.20
2018-09-13T06:19:24.666Z,821.19
2018-09-13T06:20:24.690Z,821.20
2018-09-13T06:21:24.704Z,821.22
2018-09-13T06:22:24.724Z,821.20
2018-09-13T06:23:24.740Z,821.20
2018-09-13T06:24:24.757Z,821.21
2018-09-13T06:25:24.777Z,821.21
2018-09-13T06:26:24.796Z,821.23
2018-09-13T06:27:24.814Z,821.20
2018-09-13T06:28:24.829Z,821.22
2018-09-13T06:29:24.865Z,821.21
2018-09-13T06:30:24.868Z,821.22
2018-09-13T06:31:24.887Z,821.24
2018-09-13T06:32:24.905Z,821.23
2018-09-13T06:33:24.922Z,821.21
2018-09-13T06:34:24.965Z,821.20
2018-09-13T06:35:24.958Z,821.22
2018-09-13T06:36:24.992Z,821.25
2018-09-13T06:37:24.998Z,821.26
2018-09-13T06:38:25.098Z,821.27
2018-09-13T06:39:25.032Z,821.28
2018-09-13T06:40:25.051Z,821.28
2018-09-13T06:41:25.072Z,821.27
2018-09-13T06:42:25.128Z,821.28
2018-09-13T06:43:25.108Z,821.28
2018-09-13T06:44:25.127Z,821.24
2018-09-13T06:45:25.145Z,821.27
2018-09-13T06:46:25.165Z,821.23
2018-09-13T06:47:25.183Z,821.21
2018-09-13T06:48:25.225Z,821.23
2018-09-13T06:49:25.221Z,821.27
2018-09-13T06:50:25.240Z,821.25
2018-09-13T06:51:25.259Z,821.26
2018-09-13T06:52:25.275Z,821.28
2018-09-13T06:53:25.294Z,821.25
2018-09-13T06:54:25.336Z,821.25
2018-09-13T06:55:25.331Z,821.25
2018-09-13T06:56:25.349Z,821.27
2018-09-13T06:57:25.367Z,821.27
2018-09-13T06:58:25.394Z,821.27
2018-09-13T06:59:25.409Z,821.30
2018-09-13T07:00:25.427Z,821.30
2018-09-13T07:01:25.443Z,821.34
2018-09-13T07:02:25.495Z,821.33
2018-09-13T07:03:25.483Z,821.35
2018-09-13T07:04:25.500Z,821.33
2018-09-13T07:05:25.521Z,821.34
2018-09-13T07:06:25.535Z,821.39
2018-09-13T07:07:25.555Z,821.36
2018-09-13T07:08:25.573Z,821.35
2018-09-13T07:09:25.593Z,821.33
2018-09-13T07:10:25.611Z,821.33
2018-09-13T07:11:25.630Z,821.33
2018-09-13T07:12:25.649Z,821.32
2018-09-13T07:13:25.668Z,821.33
2018-09-13T07:14:25.689Z,821.33
2018-09-13T07:15:25.707Z,821.32
2018-09-13T07:16:25.729Z,821.32
2018-09-13T07:17:25.744Z,821.30
2018-09-13T07:18:25.761Z,821.34
2018-09-13T07:19:25.782Z,821.32
2018-09-13T07:20:25.800Z,821.29
2018-09-13T07:21:25.820Z,821.30
2018-09-13T07:22:25.838Z,821.30
2018-09-13T07:23:25.856Z,821.28
2018-09-13T07:24:25.875Z,821.26
2018-09-13T07:25:25.893Z,821.27
2018-09-13T07:26:25.910Z,821.28
2018-09-13T07:27:25.928Z,821.28
2018-09-13T07:28:25.949Z,821.29
2018-09-13T07:29:25.969Z,821.32
2018-09-13T07:30:25.985Z,821.30
2018-09-13T07:31:26.005Z,821.32
2018-09-13T07:32:26.025Z,821.33
2018-09-13T07:33:26.043Z,821.31
2018-09-13T07:34:26.058Z,821.36
2018-09-13T07:35:26.079Z,821.35
2018-09-13T07:36:26.098Z,821.36
2018-09-13T07:37:26.117Z,821.38
2018-09-13T07:38:26.135Z,821.41
2018-09-13T07:39:26.155Z,821.40
2018-09-13T07:40:26.173Z,821.45
2018-09-13T07:41:26.192Z,821.43
2018-09-13T07:42:26.238Z,821.46
2018-09-13T07:43:26.231Z,821.40
2018-09-13T07:44:26.259Z,821.43
2018-09-13T07:45:26.269Z,821.46
2018-09-13T07:46:26.288Z,821.44
2018-09-13T07:47:26.306Z,821.45
2018-09-13T07:48:26.325Z,821.43
2018-09-13T07:49:26.374Z,821.42
2018-09-13T07:50:26.362Z,821.41
2018-09-13T07:51:26.381Z,821.46
2018-09-13T07:52:26.400Z,821.45
2018-09-13T07:53:26.419Z,821.43
2018-09-13T07:54:26.438Z,821.47
2018-09-13T07:55:26.484Z,821.42
2018-09-13T07:56:26.567Z,821.45
2018-09-13T07:57:26.497Z,821.45
2018-09-13T07:58:26.514Z,821.44
2018-09-13T07:59:26.534Z,821.45
2018-09-13T08:00:26.555Z,821.42
2018-09-13T08:01:26.577Z,821.46
2018-09-13T08:02:26.593Z,821.44
2018-09-13T08:03:26.611Z,821.44
2018-09-13T08:04:26.631Z,821.39
2018-09-13T08:05:26.649Z,821.41
2018-09-13T08:06:26.669Z,821.42
2018-09-13T08:07:26.690Z,821.37
2018-09-13T08:08:26.711Z,821.37
2018-09-13T08:09:26.727Z,821.41
2018-09-13T08:10:26.746Z,821.40
2018-09-13T08:11:26.765Z,821.41
2018-09-13T08:12:26.785Z,821.42
2018-09-13T08:13:26.806Z,821.38
2018-09-13T08:14:26.834Z,821.39
2018-09-13T08:15:26.842Z,821.39
2018-09-13T08:16:26.861Z,821.36
2018-09-13T08:17:26.884Z,821.34
2018-09-13T08:18:26.900Z,821.33
2018-09-13T08:19:26.923Z,821.37
2018-09-13T08:20:26.940Z,821.38
2018-09-13T08:21:26.959Z,821.32
2018-09-13T08:22:27.090Z,821.37
2018-09-13T08:23:26.999Z,821.32
2018-09-13T08:24:27.020Z,821.32
2018-09-13T08:25:27.038Z,821.31
2018-09-13T08:26:27.057Z,821.29
2018-09-13T08:27:27.077Z,821.29
2018-09-13T08:28:27.097Z,821.29
2018-09-13T08:29:27.118Z,821.28
2018-09-13T08:30:27.137Z,821.28
2018-09-13T08:31:27.156Z,821.28
2018-09-13T08:32:27.177Z,821.26
2018-09-13T08:33:27.310Z,821.21
2018-09-13T08:34:27.214Z,821.24
2018-09-13T08:35:27.233Z,821.24
2018-09-13T08:36:27.257Z,821.25
2018-09-13T08:37:27.279Z,821.27
2018-09-13T08:38:27.292Z,821.27
2018-09-13T08:39:27.415Z,821.26
2018-09-13T08:40:27.334Z,821.29
2018-09-13T08:41:27.359Z,821.28
2018-09-13T08:42:27.374Z,821.30
2018-09-13T08:43:27.393Z,821.27
2018-09-13T08:44:27.751Z,821.28
2018-09-13T08:45:27.435Z,821.32
2018-09-13T08:46:27.452Z,821.31
2018-09-13T08:47:27.502Z,821.32
2018-09-13T08:48:27.495Z,821.31
2018-09-13T08:49:27.515Z,821.34
2018-09-13T08:50:27.532Z,821.28
2018-09-13T08:51:27.560Z,821.32
2018-09-13T08:52:27.776Z,821.29
2018-09-13T08:53:27.598Z,821.33
2018-09-13T08:54:27.616Z,821.31
2018-09-13T08:55:27.635Z,821.33
2018-09-13T08:56:27.656Z,821.28
2018-09-13T08:57:27.677Z,821.31
2018-09-13T08:58:27.696Z,821.32
2018-09-13T08:59:27.718Z,821.34
2018-09-13T09:00:27.737Z,821.39
2018-09-13T09:01:27.760Z,821.32
2018-09-13T09:02:27.776Z,821.33
2018-09-13T09:03:27.797Z,821.32
2018-09-13T09:04:27.817Z,821.30
2018-09-13T09:05:27.836Z,821.35
2018-09-13T09:06:27.873Z,821.34
2018-09-13T09:07:27.878Z,821.33
2018-09-13T09:08:27.900Z,821.30
2018-09-13T09:09:27.917Z,821.36
2018-09-13T09:10:27.938Z,821.32
2018-09-13T09:11:27.962Z,821.36
2018-09-13T09:12:27.979Z,821.35
2018-09-13T09:13:28.002Z,821.37
2018-09-13T09:14:28.024Z,821.35
2018-09-13T09:15:28.044Z,821.35
2018-09-13T09:16:28.063Z,821.40
2018-09-13T09:17:28.088Z,821.35
2018-09-13T09:18:28.125Z,821.36
2018-09-13T09:19:28.126Z,821.37
2018-09-13T09:20:28.149Z,821.34
2018-09-13T09:21:28.168Z,821.35
2018-09-13T09:22:28.189Z,821.38
2018-09-13T09:23:28.210Z,821.37
2018-09-13T09:24:28.234Z,821.37
2018-09-13T09:25:28.254Z,821.37
2018-09-13T09:26:28.275Z,821.39
2018-09-13T09:27:28.293Z,821.32
2018-09-13T09:28:28.314Z,821.33
2018-09-13T09:29:28.441Z,821.34
2018-09-13T09:30:28.357Z,821.30
2018-09-13T09:31:28.381Z,821.30
2018-09-13T09:32:28.400Z,821.29
2018-09-13T09:33:28.425Z,821.30
2018-09-13T09:34:28.442Z,821.30
2018-09-13T09:35:28.463Z,821.31
2018-09-13T09:36:28.484Z,821.32
2018-09-13T09:37:28.507Z,821.31
2018-09-13T09:38:28.527Z,821.28
2018-09-13T09:39:28.547Z,821.27
2018-09-13T09:40:28.609Z,821.24
2018-09-13T09:41:28.590Z,821.22
2018-09-13T09:42:28.610Z,821.21
2018-09-13T09:43:28.633Z,821.25
2018-09-13T09:44:28.654Z,821.20
2018-09-13T09:45:28.676Z,821.26
2018-09-13T09:46:28.696Z,821.21
2018-09-13T09:47:28.718Z,821.24
2018-09-13T09:48:28.739Z,821.19
2018-09-13T09:49:28.763Z,821.22
2018-09-13T09:50:28.853Z,821.21
2018-09-13T09:51:28.806Z,821.24
2018-09-13T09:52:28.893Z,821.22
2018-09-13T09:53:28.845Z,821.21
2018-09-13T09:54:28.865Z,821.21
2018-09-13T09:55:28.888Z,821.16
2018-09-13T09:56:28.910Z,821.21
2018-09-13T09:57:28.929Z,821.19
2018-09-13T09:58:29.132Z,821.21
2018-09-13T09:59:28.973Z,821.20
2018-09-13T10:00:28.998Z,821.23
2018-09-13T10:01:29.014Z,821.22
2018-09-13T10:02:29.035Z,821.18
2018-09-13T10:03:29.059Z,821.21
2018-09-13T10:04:29.110Z,821.18
2018-09-13T10:05:29.101Z,821.16
2018-09-13T10:06:29.122Z,821.09
2018-09-13T10:07:29.142Z,821.16
2018-09-13T10:08:29.168Z,821.11
2018-09-13T10:09:29.187Z,821.19
2018-09-13T10:10:29.208Z,821.14
2018-09-13T10:11:29.233Z,821.17
2018-09-13T10:12:29.254Z,821.19
2018-09-13T10:13:29.276Z,821.18
2018-09-13T10:14:29.301Z,821.19
2018-09-13T10:15:29.319Z,821.19
2018-09-13T10:16:29.344Z,821.17
2018-09-13T10:17:29.365Z,821.14
2018-09-13T10:18:29.387Z,821.15
2018-09-13T10:19:29.414Z,821.16
2018-09-13T10:20:29.432Z,821.08
2018-09-13T10:21:29.456Z,821.06
2018-09-13T10:22:29.479Z,821.07
2018-09-13T10:23:29.502Z,821.07
2018-09-13T10:24:29.529Z,821.04
2018-09-13T10:25:29.545Z,820.96
2018-09-13T10:26:29.568Z,820.99
2018-09-13T10:27:29.593Z,821.03
2018-09-13T10:28:29.635Z,820.97
2018-09-13T10:29:29.674Z,820.99
2018-09-13T10:30:29.663Z,821.00
2018-09-13T10:31:29.688Z,820.96
2018-09-13T10:32:29.709Z,820.98
2018-09-13T10:33:29.755Z,821.01
2018-09-13T10:34:29.756Z,821.03
2018-09-13T10:35:29.783Z,821.01
2018-09-13T10:36:29.804Z,820.95
2018-09-13T10:37:29.826Z,820.97
2018-09-13T10:38:29.853Z,820.97
2018-09-13T10:40:29.911Z,820.94
2018-09-13T10:41:29.947Z,820.95
2018-09-13T10:42:29.944Z,820.91
2018-09-13T10:43:29.968Z,820.94
2018-09-13T10:44:29.991Z,820.93
2018-09-13T10:45:30.015Z,820.91
2018-09-13T10:46:30.039Z,820.93
2018-09-13T10:47:30.131Z,820.85
2018-09-13T10:48:30.089Z,820.80
2018-09-13T10:49:30.108Z,820.83
2018-09-13T10:50:30.166Z,820.85
2018-09-13T10:51:30.157Z,820.80
2018-09-13T10:52:30.223Z,820.77
2018-09-13T10:53:30.202Z,820.84
2018-09-13T10:54:30.332Z,820.78
2018-09-13T10:55:30.336Z,820.79
2018-09-13T10:56:30.272Z,820.80
2018-09-13T10:57:30.294Z,820.82
2018-09-13T10:58:30.319Z,820.77
2018-09-13T10:59:30.344Z,820.74
2018-09-13T11:00:30.367Z,820.75
2018-09-13T11:01:30.391Z,820.78
2018-09-13T11:02:30.420Z,820.78
2018-09-13T11:03:30.436Z,820.77
2018-09-13T11:04:30.538Z,820.67
2018-09-13T11:05:30.523Z,820.75
2018-09-13T11:06:30.512Z,820.77
2018-09-13T11:07:30.534Z,820.74
2018-09-13T11:08:30.558Z,820.72
2018-09-13T11:09:30.581Z,820.66
2018-09-13T11:10:30.653Z,820.71
2018-09-13T11:11:30.630Z,820.73
2018-09-13T11:12:30.655Z,820.70
2018-09-13T11:13:30.683Z,820.69
2018-09-13T11:14:30.703Z,820.64
2018-09-13T11:15:30.728Z,820.70
2018-09-13T11:16:30.754Z,820.62
2018-09-13T11:17:30.775Z,820.75
2018-09-13T11:18:30.800Z,820.74
2018-09-13T11:19:30.826Z,820.73
2018-09-13T11:20:30.850Z,820.63
2018-09-13T11:21:30.874Z,820.70
2018-09-13T11:22:30.896Z,820.63
2018-09-13T11:23:30.923Z,820.66
2018-09-13T11:24:31.000Z,820.65
2018-09-13T11:25:30.970Z,820.62
2018-09-13T11:26:30.995Z,820.63
2018-09-13T11:27:31.020Z,820.64
2018-09-13T11:28:31.044Z,820.58
2018-09-13T11:29:31.071Z,820.65
2018-09-13T11:30:31.120Z,820.62
2018-09-13T11:31:31.118Z,820.65
2018-09-13T11:32:31.147Z,820.60
2018-09-13T11:33:31.170Z,820.63
2018-09-13T11:34:31.196Z,820.68
2018-09-13T11:35:31.221Z,820.65
2018-09-13T11:36:31.245Z,820.58
2018-09-13T11:37:31.268Z,820.65
2018-09-13T11:38:31.294Z,820.60
2018-09-13T11:39:31.319Z,820.55
2018-09-13T11:40:31.613Z,820.60
2018-09-13T11:41:31.368Z,820.59
2018-09-13T11:42:31.393Z,820.56
2018-09-13T11:43:31.417Z,820.62
2018-09-13T11:44:31.442Z,820.55
2018-09-13T11:45:31.481Z,820.58
2018-09-13T11:46:31.494Z,820.59
2018-09-13T11:47:31.517Z,820.59
2018-09-13T11:48:31.542Z,820.69
2018-09-13T11:49:31.577Z,820.60
2018-09-13T11:50:31.598Z,820.61
2018-09-13T11:51:31.618Z,820.59
2018-09-13T11:52:31.642Z,820.64
2018-09-13T11:53:31.668Z,820.51
2018-09-13T11:54:31.693Z,820.51
2018-09-13T11:55:31.716Z,820.52
2018-09-13T11:56:31.796Z,820.52
2018-09-13T11:57:31.768Z,820.52
2018-09-13T11:58:31.788Z,820.57
2018-09-13T11:59:31.813Z,820.55
2018-09-13T12:00:31.839Z,820.55
2018-09-13T12:01:31.863Z,820.56
2018-09-13T12:02:31.885Z,820.63
2018-09-13T12:03:31.911Z,820.63
2018-09-13T12:04:31.935Z,820.60
2018-09-13T12:05:31.965Z,820.56
2018-09-13T12:06:31.983Z,820.58
2018-09-13T12:07:32.009Z,820.58
2018-09-13T12:08:32.034Z,820.54
2018-09-13T12:09:32.134Z,820.62
2018-09-13T12:10:32.081Z,820.58
2018-09-13T12:11:32.104Z,820.63
2018-09-13T12:12:32.129Z,820.48
2018-09-13T12:13:32.154Z,820.54
2018-09-13T12:14:32.200Z,820.49
2018-09-13T12:15:32.200Z,820.49
2018-09-13T12:16:32.224Z,820.42
2018-09-13T12:17:32.250Z,820.39
2018-09-13T12:18:32.276Z,820.42
2018-09-13T12:19:32.296Z,820.43
2018-09-13T12:20:32.322Z,820.42
2018-09-13T12:21:32.346Z,820.38
2018-09-13T12:22:32.597Z,820.39
2018-09-13T12:23:32.393Z,820.41
2018-09-13T12:24:32.509Z,820.45
2018-09-13T12:25:32.441Z,820.43
2018-09-13T12:26:32.465Z,820.39
2018-09-13T12:27:32.666Z,820.38
2018-09-13T12:28:32.513Z,820.31
2018-09-13T12:29:32.537Z,820.32